createdAt,value
2023-03-17T09:43:38.726Z,8.30
2023-03-17T09:45:43.682Z,8.30
2023-03-17T09:48:03.001Z,7.84
2023-03-17T09:50:13.047Z,8.05
2023-03-17T09:52:18.798Z,7.93
2023-03-17T09:54:33.261Z,8.02
2023-03-17T09:56:37.822Z,7.95
2023-03-17T09:58:48.987Z,8.01
2023-03-17T10:00:52.420Z,7.97
2023-03-17T10:02:59.004Z,7.90
2023-03-17T10:05:28.958Z,7.95
2023-03-17T10:07:42.280Z,8.06
2023-03-17T10:10:29.341Z,8.05
2023-03-17T10:12:56.506Z,7.81
2023-03-17T10:15:06.841Z,7.99
2023-03-17T10:17:42.332Z,8.04
2023-03-17T10:19:54.636Z,8.26
2023-03-17T10:22:29.422Z,8.30
2023-03-17T10:24:34.150Z,8.21
2023-03-17T10:26:57.987Z,8.64
2023-03-17T10:29:04.369Z,8.56
2023-03-17T10:31:13.852Z,8.47
2023-03-17T10:33:16.612Z,8.73
2023-03-17T10:35:19.806Z,8.71
2023-03-17T10:37:24.026Z,9.04
2023-03-17T10:39:27.127Z,9.16
2023-03-17T10:41:30.237Z,9.20
2023-03-17T10:43:44.686Z,9.39
2023-03-17T10:46:00.965Z,9.38
2023-03-17T10:48:08.487Z,9.56
2023-03-17T10:50:23.017Z,9.82
2023-03-17T10:52:28.661Z,10.02
2023-03-17T10:54:36.021Z,10.02
2023-03-17T10:56:42.428Z,9.94
2023-03-17T10:58:55.604Z,9.96
2023-03-17T11:01:05.860Z,10.13
2023-03-17T11:03:24.673Z,10.26
2023-03-17T11:05:29.986Z,10.30
2023-03-17T11:07:40.376Z,10.14
2023-03-17T11:09:42.806Z,10.28
2023-03-17T11:11:48.667Z,10.22
2023-03-17T11:13:51.894Z,10.31
2023-03-17T11:16:07.427Z,10.35
2023-03-17T11:18:34.692Z,10.39
2023-03-17T11:21:01.663Z,10.51
2023-03-17T11:23:24.304Z,10.73
2023-03-17T11:25:28.340Z,11.21
2023-03-17T11:27:34.358Z,11.15
2023-03-17T11:29:36.693Z,11.54
2023-03-17T11:31:55.994Z,13.04
2023-03-17T11:34:14.415Z,13.99
2023-03-17T11:36:36.328Z,16.23
2023-03-17T11:39:23.376Z,17.86
2023-03-17T11:42:10.923Z,18.86
2023-03-17T11:44:16.011Z,18.74
2023-03-17T11:46:27.596Z,20.09
2023-03-17T11:48:55.678Z,19.57
2023-03-17T11:51:13.455Z,20.57
2023-03-17T11:53:31.588Z,21.75
2023-03-17T11:55:48.491Z,22.26
2023-03-17T11:58:05.246Z,20.91
2023-03-17T12:00:20.893Z,21.02
2023-03-17T12:02:32.181Z,21.99
2023-03-17T12:04:38.699Z,23.21
2023-03-17T12:06:52.855Z,24.13
2023-03-17T12:09:03.368Z,23.81
2023-03-17T12:11:12.385Z,23.73
2023-03-17T12:13:18.051Z,23.31
2023-03-17T12:15:56.053Z,23.65
2023-03-17T12:18:04.327Z,24.58
2023-03-17T12:20:27.941Z,25.90
2023-03-17T12:22:38.291Z,25.33
2023-03-17T12:25:11.536Z,26.18
2023-03-17T12:27:17.943Z,25.49
2023-03-17T12:29:32.803Z,25.41
2023-03-17T12:31:39.307Z,24.95
2023-03-17T12:33:58.887Z,25.38
2023-03-17T12:36:02.772Z,25.93
2023-03-17T12:38:18.996Z,25.20
2023-03-17T12:40:41.601Z,24.68
2023-03-17T12:43:17.527Z,25.32
2023-03-17T12:45:58.317Z,24.14
2023-03-17T12:48:04.159Z,25.09
2023-03-17T12:50:16.004Z,25.04
2023-03-17T12:52:27.522Z,23.80
2023-03-17T12:54:33.712Z,23.96
2023-03-17T12:56:36.767Z,24.45
2023-03-17T12:58:44.139Z,24.45
2023-03-17T13:00:59.270Z,23.82
2023-03-17T13:03:15.902Z,23.15
2023-03-17T13:05:30.990Z,22.15
2023-03-17T13:07:56.213Z,22.89
2023-03-17T13:09:59.111Z,22.84
2023-03-17T13:12:03.396Z,20.82
2023-03-17T13:14:15.565Z,20.84
2023-03-17T13:16:33.927Z,21.39
2023-03-17T13:18:36.741Z,21.06
2023-03-17T13:20:51.712Z,20.70
2023-03-17T13:23:15.121Z,20.86
2023-03-17T13:25:49.889Z,19.38
2023-03-17T13:27:52.613Z,19.15
2023-03-17T13:29:55.088Z,17.93
2023-03-17T13:32:15.916Z,18.83
2023-03-17T13:34:20.721Z,19.76
2023-03-17T13:36:38.351Z,20.63
2023-03-17T13:39:18.638Z,19.97
2023-03-17T13:41:28.108Z,19.61
2023-03-17T13:44:07.899Z,19.90
2023-03-17T13:46:31.773Z,19.57
2023-03-17T13:48:38.238Z,19.42
2023-03-17T13:50:42.385Z,17.97
2023-03-17T13:52:57.610Z,18.20
2023-03-17T13:55:18.529Z,18.53
2023-03-17T13:57:39.240Z,18.47
2023-03-17T13:59:50.810Z,18.84
2023-03-17T14:02:16.835Z,18.58
2023-03-17T14:04:24.968Z,18.79
2023-03-17T14:06:31.387Z,18.31
2023-03-17T14:08:42.786Z,18.02
2023-03-17T14:10:54.422Z,18.10
2023-03-17T14:13:21.835Z,17.38
2023-03-17T14:15:46.534Z,16.46
2023-03-17T14:18:11.023Z,16.93
2023-03-17T14:20:13.403Z,16.69
2023-03-17T14:22:22.258Z,16.00
2023-03-17T14:24:29.763Z,15.75
2023-03-17T14:26:32.762Z,14.77
2023-03-17T14:28:36.038Z,13.80
2023-03-17T14:30:39.271Z,13.75
2023-03-17T14:32:48.030Z,13.64
2023-03-17T14:34:56.849Z,13.45
2023-03-17T14:37:04.358Z,13.04
2023-03-17T14:39:07.318Z,12.87
2023-03-17T14:41:15.658Z,12.63
2023-03-17T14:43:18.367Z,12.49
2023-03-17T14:45:20.899Z,12.22
2023-03-17T14:47:25.984Z,12.32
2023-03-17T14:49:28.900Z,12.43
2023-03-17T14:51:36.245Z,12.49
2023-03-17T14:53:44.969Z,12.53
2023-03-17T14:55:48.340Z,12.47
2023-03-17T14:57:52.680Z,12.34
2023-03-17T15:00:00.380Z,12.31
2023-03-17T15:02:27.983Z,12.40
2023-03-17T15:04:33.626Z,12.19
2023-03-17T15:06:37.511Z,12.41
2023-03-17T15:08:48.167Z,12.47
2023-03-17T15:10:50.625Z,12.42
2023-03-17T15:13:04.996Z,12.12
2023-03-17T15:15:24.303Z,11.47
2023-03-17T15:17:31.250Z,11.47
2023-03-17T15:19:49.021Z,11.48
2023-03-17T15:21:52.200Z,11.38
2023-03-17T15:23:54.654Z,11.43
2023-03-17T15:25:57.369Z,11.45
2023-03-17T15:28:00.459Z,11.34
2023-03-17T15:30:03.279Z,11.09
2023-03-17T15:32:15.337Z,11.06
2023-03-17T15:34:18.102Z,11.02
2023-03-17T15:36:31.882Z,11.07
2023-03-17T15:38:38.950Z,10.73
2023-03-17T15:40:41.752Z,10.83
2023-03-17T15:42:45.454Z,10.80
2023-03-17T15:44:48.017Z,10.62
2023-03-17T15:46:51.203Z,10.50
2023-03-17T15:48:53.731Z,10.50
2023-03-17T15:50:57.720Z,10.18
2023-03-17T15:53:00.525Z,10.24
2023-03-17T15:55:06.846Z,10.28
2023-03-17T15:57:12.761Z,10.38
2023-03-17T15:59:15.735Z,10.30
2023-03-17T16:01:19.067Z,10.12
2023-03-17T16:03:29.748Z,9.98
2023-03-17T16:05:35.036Z,9.92
2023-03-17T16:07:39.639Z,9.83
2023-03-17T16:09:42.304Z,9.82
2023-03-17T16:11:44.758Z,9.87
2023-03-17T16:13:47.661Z,9.77
2023-03-17T16:15:58.728Z,9.79
2023-03-17T16:18:04.826Z,9.65
2023-03-17T16:20:17.440Z,9.54
2023-03-17T16:22:41.945Z,9.40
2023-03-17T16:24:44.760Z,9.44
2023-03-17T16:26:47.644Z,9.52
2023-03-17T16:28:50.891Z,9.53
2023-03-17T16:30:54.978Z,9.63
2023-03-17T16:33:08.925Z,9.61
2023-03-17T16:35:20.753Z,9.73
2023-03-17T16:37:23.307Z,9.61
2023-03-17T16:39:26.374Z,9.47
2023-03-17T16:41:30.569Z,9.46
2023-03-17T16:43:37.841Z,9.48
2023-03-17T16:45:40.696Z,9.55
2023-03-17T16:47:43.513Z,9.56
2023-03-17T16:49:46.234Z,9.40
2023-03-17T16:51:50.213Z,9.34
2023-03-17T16:53:53.252Z,9.31
2023-03-17T16:55:56.412Z,9.16
2023-03-17T16:58:03.767Z,9.20
2023-03-17T17:00:08.545Z,9.19
2023-03-17T17:02:16.269Z,9.04
2023-03-17T17:04:18.866Z,9.02
2023-03-17T17:06:23.471Z,8.96
2023-03-17T17:08:26.888Z,9.05
2023-03-17T17:10:33.107Z,9.08
2023-03-17T17:12:36.081Z,9.02
2023-03-17T17:14:39.140Z,8.95
2023-03-17T17:16:42.687Z,8.90
2023-03-17T17:18:47.526Z,8.87
2023-03-17T17:20:51.756Z,8.78
2023-03-17T17:22:59.011Z,8.74
2023-03-17T17:25:03.520Z,8.70
2023-03-17T17:27:06.369Z,8.80
2023-03-17T17:29:10.880Z,8.77
2023-03-17T17:31:14.326Z,8.73
2023-03-17T17:33:18.173Z,8.79
2023-03-17T17:35:24.473Z,8.72
2023-03-17T17:37:28.266Z,8.67
2023-03-17T17:39:31.178Z,8.55
2023-03-17T17:41:34.900Z,8.71
2023-03-17T17:43:38.851Z,8.58
2023-03-17T17:45:43.116Z,8.61
2023-03-17T17:47:46.898Z,8.60
2023-03-17T17:49:51.358Z,8.68
2023-03-17T17:51:54.552Z,8.56
2023-03-17T17:53:59.664Z,8.65
2023-03-17T17:56:03.777Z,8.71
2023-03-17T17:58:07.580Z,8.52
2023-03-17T18:00:15.807Z,8.49
2023-03-17T18:02:19.902Z,8.41
2023-03-17T18:04:23.284Z,8.34
2023-03-17T18:06:26.843Z,8.31
2023-03-17T18:08:30.725Z,8.37
2023-03-17T18:10:35.243Z,8.36
2023-03-17T18:12:38.560Z,8.33
2023-03-17T18:15:02.416Z,8.28
2023-03-17T18:17:05.984Z,8.44
2023-03-17T18:19:11.812Z,8.38
2023-03-17T18:21:16.361Z,8.19
2023-03-17T18:23:20.722Z,8.12
2023-03-17T18:25:27.732Z,8.10
2023-03-17T18:27:31.459Z,7.98
2023-03-17T18:29:35.094Z,8.04
2023-03-17T18:31:42.506Z,8.02
2023-03-17T18:33:50.238Z,7.88
2023-03-17T18:35:55.971Z,7.92
2023-03-17T18:38:00.334Z,7.77
2023-03-17T18:40:14.308Z,7.74
2023-03-17T18:44:37.216Z,7.81
2023-03-17T18:46:41.476Z,7.79
2023-03-17T18:48:47.878Z,7.76
2023-03-17T18:50:51.326Z,7.84
2023-03-17T18:52:57.787Z,7.73
2023-03-17T18:55:01.170Z,7.75
2023-03-17T18:57:05.097Z,7.72
2023-03-17T18:59:10.508Z,7.68
2023-03-17T19:01:15.517Z,7.56
2023-03-17T19:03:22.718Z,7.46
2023-03-17T19:05:28.702Z,7.45
2023-03-17T19:07:32.654Z,7.55
2023-03-17T19:09:36.582Z,7.56
2023-03-17T19:11:40.878Z,7.60
2023-03-17T19:13:45.729Z,7.40
2023-03-17T19:15:49.448Z,7.44
2023-03-17T19:17:53.967Z,7.37
2023-03-17T19:19:59.177Z,7.33
2023-03-17T19:22:02.560Z,7.27
2023-03-17T19:24:06.594Z,7.18
2023-03-17T19:26:12.174Z,7.34
2023-03-17T19:28:16.280Z,7.24
2023-03-17T19:30:22.805Z,7.25
2023-03-17T19:32:37.858Z,7.37
2023-03-17T19:34:41.921Z,7.35
2023-03-17T19:36:47.815Z,7.32
2023-03-17T19:38:52.390Z,7.09
2023-03-17T19:40:56.381Z,7.17
2023-03-17T19:43:01.709Z,7.08
2023-03-17T19:45:06.911Z,7.06
2023-03-17T19:47:10.818Z,7.01
2023-03-17T19:49:15.705Z,7.07
2023-03-17T19:51:20.326Z,6.85
2023-03-17T19:53:24.396Z,6.91
2023-03-17T19:55:29.919Z,6.96
2023-03-17T19:57:33.722Z,6.97
2023-03-17T19:59:38.136Z,6.87
2023-03-17T20:01:42.923Z,6.91
2023-03-17T20:03:47.080Z,6.91
2023-03-17T20:05:53.360Z,6.97
2023-03-17T20:07:56.558Z,6.94
2023-03-17T20:10:02.000Z,6.73
2023-03-17T20:12:05.763Z,6.64
2023-03-17T20:14:12.461Z,6.67
2023-03-17T20:16:22.713Z,6.60
2023-03-17T20:18:29.509Z,6.59
2023-03-17T20:20:35.499Z,6.52
2023-03-17T20:22:41.813Z,6.44
2023-03-17T20:24:45.567Z,6.41
2023-03-17T20:26:49.820Z,6.52
2023-03-17T20:28:54.361Z,6.47
2023-03-17T20:31:01.666Z,6.45
2023-03-17T20:33:06.748Z,6.54
2023-03-17T20:35:10.630Z,6.58
2023-03-17T20:37:15.245Z,6.67
2023-03-17T20:39:21.872Z,6.61
2023-03-17T20:41:25.332Z,6.57
2023-03-17T20:43:28.128Z,6.49
2023-03-17T20:45:31.815Z,6.51
2023-03-17T20:47:36.743Z,6.51
2023-03-17T20:49:40.181Z,6.40
2023-03-17T20:51:44.326Z,6.30
2023-03-17T20:53:50.593Z,6.35
2023-03-17T20:55:55.684Z,6.40
2023-03-17T20:58:02.369Z,6.39
2023-03-17T21:00:20.418Z,6.36
2023-03-17T21:02:24.969Z,6.38
2023-03-17T21:04:28.034Z,6.38
2023-03-17T21:06:33.049Z,6.35
2023-03-17T21:08:37.285Z,6.32
2023-03-17T21:10:40.995Z,6.29
2023-03-17T21:12:46.117Z,6.29
2023-03-17T21:14:50.750Z,6.18
2023-03-17T21:16:53.723Z,6.12
2023-03-17T21:18:57.230Z,6.05
2023-03-17T21:20:59.895Z,6.14
2023-03-17T21:23:04.780Z,6.10
2023-03-17T21:25:10.195Z,6.12
2023-03-17T21:27:14.281Z,6.10
2023-03-17T21:29:17.096Z,6.00
2023-03-17T21:31:20.213Z,5.95
2023-03-17T21:33:23.028Z,5.99
2023-03-17T21:35:25.505Z,5.91
2023-03-17T21:37:28.485Z,5.92
2023-03-17T21:39:32.876Z,5.88
2023-03-17T21:41:37.936Z,5.98
2023-03-17T21:43:41.182Z,5.85
2023-03-17T21:45:44.470Z,5.88
2023-03-17T21:47:47.279Z,5.83
2023-03-17T21:49:50.328Z,5.86
2023-03-17T21:51:52.896Z,5.94
2023-03-17T21:53:57.551Z,5.94
2023-03-17T21:56:00.329Z,5.86
2023-03-17T21:58:02.691Z,5.85
2023-03-17T22:00:08.057Z,5.61
2023-03-17T22:02:17.609Z,5.65
2023-03-17T22:04:20.248Z,5.69
2023-03-17T22:06:23.274Z,5.76
2023-03-17T22:08:26.429Z,5.70
2023-03-17T22:10:29.297Z,5.51
2023-03-17T22:12:31.747Z,5.40
2023-03-17T22:14:35.717Z,5.54
2023-03-17T22:16:38.682Z,5.57
2023-03-17T22:18:41.981Z,5.47
2023-03-17T22:20:45.575Z,5.41
2023-03-17T22:22:48.234Z,5.42
2023-03-17T22:24:50.725Z,5.41
2023-03-17T22:26:53.471Z,5.30
2023-03-17T22:28:56.124Z,5.25
2023-03-17T22:30:58.489Z,5.17
2023-03-17T22:33:00.830Z,5.34
2023-03-17T22:35:04.389Z,5.32
2023-03-17T22:37:07.808Z,5.39
2023-03-17T22:39:10.864Z,5.41
2023-03-17T22:41:17.018Z,5.25
2023-03-17T22:43:19.354Z,5.16
2023-03-17T22:45:22.289Z,5.28
2023-03-17T22:47:25.500Z,5.36
2023-03-17T22:49:27.870Z,5.33
2023-03-17T22:51:30.585Z,5.40
2023-03-17T22:53:33.468Z,5.12
2023-03-17T22:55:36.487Z,5.06
2023-03-17T22:57:38.886Z,5.04
2023-03-17T22:59:41.525Z,5.06
2023-03-17T23:01:43.919Z,5.04
2023-03-17T23:03:47.079Z,5.12
2023-03-17T23:05:52.379Z,5.08
2023-03-17T23:07:55.002Z,5.09
2023-03-17T23:09:58.030Z,4.90
2023-03-17T23:12:01.283Z,5.04
2023-03-17T23:14:04.428Z,4.90
2023-03-17T23:16:08.027Z,4.92
2023-03-17T23:18:11.044Z,4.99
2023-03-17T23:20:14.065Z,5.06
2023-03-17T23:22:17.057Z,5.05
2023-03-17T23:24:19.900Z,5.11
2023-03-17T23:26:22.810Z,5.23
2023-03-17T23:28:25.794Z,5.13
2023-03-17T23:30:29.335Z,5.18
2023-03-17T23:32:31.975Z,5.18
2023-03-17T23:34:34.635Z,5.04
2023-03-17T23:36:40.673Z,5.06
2023-03-17T23:38:44.195Z,5.15
2023-03-17T23:40:47.810Z,5.12
2023-03-17T23:42:50.694Z,4.99
2023-03-17T23:44:53.033Z,5.04
2023-03-17T23:46:55.592Z,5.10
2023-03-17T23:48:58.535Z,5.09
2023-03-17T23:51:01.215Z,5.00
2023-03-17T23:53:03.914Z,4.73
2023-03-17T23:55:07.976Z,4.60
2023-03-17T23:57:10.377Z,4.80
2023-03-17T23:59:13.059Z,4.71
